sensor_id;sensor_type;location;lat;lon;timestamp;P1;P2;P0
21358;PMS7003;13506;50.852;20.632;2022-10-24T00:00:59;50.25;43.00;27.75
21358;PMS7003;13506;50.852;20.632;2022-10-24T00:03:33;42.40;36.20;23.80
21358;PMS7003;13506;50.852;20.632;2022-10-24T00:06:01;40.80;37.40;24.20
21358;PMS7003;13506;50.852;20.632;2022-10-24T00:08:34;43.25;39.25;25.25
21358;PMS7003;13506;50.852;20.632;2022-10-24T00:11:06;44.00;39.20;23.60
21358;PMS7003;13506;50.852;20.632;2022-10-24T00:13:35;43.20;37.80;23.60
21358;PMS7003;13506;50.852;20.632;2022-10-24T00:16:03;42.60;38.00;22.00
21358;PMS7003;13506;50.852;20.632;2022-10-24T00:18:32;37.20;33.80;22.00
21358;PMS7003;13506;50.852;20.632;2022-10-24T00:21:00;47.60;38.40;24.60
21358;PMS7003;13506;50.852;20.632;2022-10-24T00:23:27;42.40;35.60;24.00
21358;PMS7003;13506;50.852;20.632;2022-10-24T00:25:57;41.40;35.40;22.40
21358;PMS7003;13506;50.852;20.632;2022-10-24T00:28:26;41.40;38.00;24.80
21358;PMS7003;13506;50.852;20.632;2022-10-24T00:30:54;45.00;39.20;24.20
21358;PMS7003;13506;50.852;20.632;2022-10-24T00:33:22;37.60;33.40;20.40
21358;PMS7003;13506;50.852;20.632;2022-10-24T00:35:50;37.00;33.20;22.00
21358;PMS7003;13506;50.852;20.632;2022-10-24T00:38:18;36.80;34.00;22.40
21358;PMS7003;13506;50.852;20.632;2022-10-24T00:40:46;36.40;34.40;23.80
21358;PMS7003;13506;50.852;20.632;2022-10-24T00:43:16;38.20;33.00;22.60
21358;PMS7003;13506;50.852;20.632;2022-10-24T00:45:47;37.00;33.40;20.60
21358;PMS7003;13506;50.852;20.632;2022-10-24T00:48:21;36.20;31.60;18.20
21358;PMS7003;13506;50.852;20.632;2022-10-24T00:50:53;39.00;31.20;18.80
21358;PMS7003;13506;50.852;20.632;2022-10-24T00:53:24;42.20;37.20;21.20
21358;PMS7003;13506;50.852;20.632;2022-10-24T00:55:56;41.40;34.40;20.00
21358;PMS7003;13506;50.852;20.632;2022-10-24T00:58:29;55.00;47.00;29.50
21358;PMS7003;13506;50.852;20.632;2022-10-24T01:00:59;49.00;41.50;24.75
21358;PMS7003;13506;50.852;20.632;2022-10-24T01:03:27;58.25;44.75;26.25
21358;PMS7003;13506;50.852;20.632;2022-10-24T01:05:59;55.40;40.80;26.20
21358;PMS7003;13506;50.852;20.632;2022-10-24T01:08:41;52.80;39.40;25.00
21358;PMS7003;13506;50.852;20.632;2022-10-24T01:11:19;41.00;31.60;20.80
21358;PMS7003;13506;50.852;20.632;2022-10-24T01:14:07;31.40;28.40;18.60
21358;PMS7003;13506;50.852;20.632;2022-10-24T01:16:44;27.00;26.00;14.60
21358;PMS7003;13506;50.852;20.632;2022-10-24T01:19:23;33.60;29.00;15.20
21358;PMS7003;13506;50.852;20.632;2022-10-24T01:22:16;30.60;27.00;15.20
21358;PMS7003;13506;50.852;20.632;2022-10-24T01:24:50;27.80;25.20;16.00
21358;PMS7003;13506;50.852;20.632;2022-10-24T01:27:37;27.00;24.40;14.00
21358;PMS7003;13506;50.852;20.632;2022-10-24T01:30:23;28.00;25.60;15.00
21358;PMS7003;13506;50.852;20.632;2022-10-24T01:32:54;35.00;32.00;19.20
21358;PMS7003;13506;50.852;20.632;2022-10-24T01:35:31;34.60;29.20;18.40
21358;PMS7003;13506;50.852;20.632;2022-10-24T01:38:09;33.00;26.00;16.00
21358;PMS7003;13506;50.852;20.632;2022-10-24T01:40:44;32.60;28.40;17.80
21358;PMS7003;13506;50.852;20.632;2022-10-24T01:43:19;34.80;31.40;18.20
21358;PMS7003;13506;50.852;20.632;2022-10-24T01:45:54;39.00;31.60;18.00
21358;PMS7003;13506;50.852;20.632;2022-10-24T01:48:27;31.40;28.80;17.60
21358;PMS7003;13506;50.852;20.632;2022-10-24T01:51:00;41.20;33.60;20.40
21358;PMS7003;13506;50.852;20.632;2022-10-24T01:53:30;43.20;36.60;23.80
21358;PMS7003;13506;50.852;20.632;2022-10-24T01:55:58;43.60;33.60;19.80
21358;PMS7003;13506;50.852;20.632;2022-10-24T01:58:26;46.20;37.60;23.80
21358;PMS7003;13506;50.852;20.632;2022-10-24T02:00:56;46.20;38.40;22.40
21358;PMS7003;13506;50.852;20.632;2022-10-24T02:03:29;50.60;40.20;23.80
21358;PMS7003;13506;50.852;20.632;2022-10-24T02:06:02;43.50;38.00;23.25
21358;PMS7003;13506;50.852;20.632;2022-10-24T02:08:35;40.40;38.20;21.80
21358;PMS7003;13506;50.852;20.632;2022-10-24T02:11:09;44.60;37.20;22.00
21358;PMS7003;13506;50.852;20.632;2022-10-24T02:13:39;38.20;35.00;24.60
21358;PMS7003;13506;50.852;20.632;2022-10-24T02:16:14;32.40;28.20;18.20
21358;PMS7003;13506;50.852;20.632;2022-10-24T02:18:45;34.80;32.20;21.80
21358;PMS7003;13506;50.852;20.632;2022-10-24T02:21:17;30.80;26.20;14.80
21358;PMS7003;13506;50.852;20.632;2022-10-24T02:23:55;33.20;30.80;19.60
21358;PMS7003;13506;50.852;20.632;2022-10-24T02:26:30;39.20;31.00;20.20
21358;PMS7003;13506;50.852;20.632;2022-10-24T02:29:05;44.80;35.60;21.00
21358;PMS7003;13506;50.852;20.632;2022-10-24T02:31:41;39.20;33.80;20.80
21358;PMS7003;13506;50.852;20.632;2022-10-24T02:34:14;39.60;37.00;21.00
21358;PMS7003;13506;50.852;20.632;2022-10-24T02:36:45;39.60;31.80;19.20
21358;PMS7003;13506;50.852;20.632;2022-10-24T02:39:17;39.00;37.00;23.00
21358;PMS7003;13506;50.852;20.632;2022-10-24T02:41:46;42.40;35.60;21.00
21358;PMS7003;13506;50.852;20.632;2022-10-24T02:44:17;38.20;34.20;19.80
21358;PMS7003;13506;50.852;20.632;2022-10-24T02:46:47;40.00;35.60;20.20
21358;PMS7003;13506;50.852;20.632;2022-10-24T02:49:18;42.00;30.20;18.80
21358;PMS7003;13506;50.852;20.632;2022-10-24T02:51:46;37.80;34.40;22.40
21358;PMS7003;13506;50.852;20.632;2022-10-24T02:54:15;49.00;41.00;27.00
21358;PMS7003;13506;50.852;20.632;2022-10-24T02:56:44;40.40;35.60;23.00
21358;PMS7003;13506;50.852;20.632;2022-10-24T02:59:17;45.00;36.60;22.40
21358;PMS7003;13506;50.852;20.632;2022-10-24T03:01:45;38.80;35.80;20.20
21358;PMS7003;13506;50.852;20.632;2022-10-24T03:04:14;52.75;42.75;29.00
21358;PMS7003;13506;50.852;20.632;2022-10-24T03:06:42;45.60;37.40;21.20
21358;PMS7003;13506;50.852;20.632;2022-10-24T03:09:10;52.75;41.25;26.00
21358;PMS7003;13506;50.852;20.632;2022-10-24T03:11:38;45.75;38.50;24.25
21358;PMS7003;13506;50.852;20.632;2022-10-24T03:14:06;55.00;42.50;27.00
21358;PMS7003;13506;50.852;20.632;2022-10-24T03:16:34;50.50;39.75;24.25
21358;PMS7003;13506;50.852;20.632;2022-10-24T03:19:03;51.00;42.25;26.75
21358;PMS7003;13506;50.852;20.632;2022-10-24T03:21:31;45.75;38.25;25.00
21358;PMS7003;13506;50.852;20.632;2022-10-24T03:23:59;48.75;41.75;27.25
21358;PMS7003;13506;50.852;20.632;2022-10-24T03:26:27;47.00;36.20;21.80
21358;PMS7003;13506;50.852;20.632;2022-10-24T03:28:55;53.50;43.50;27.50
21358;PMS7003;13506;50.852;20.632;2022-10-24T03:31:23;49.75;41.00;26.50
21358;PMS7003;13506;50.852;20.632;2022-10-24T03:33:50;55.50;41.25;25.00
21358;PMS7003;13506;50.852;20.632;2022-10-24T03:36:20;47.75;41.75;26.25
21358;PMS7003;13506;50.852;20.632;2022-10-24T03:38:48;42.60;35.80;22.20
21358;PMS7003;13506;50.852;20.632;2022-10-24T03:41:16;36.20;33.80;22.20
21358;PMS7003;13506;50.852;20.632;2022-10-24T03:43:43;38.40;33.40;21.40
21358;PMS7003;13506;50.852;20.632;2022-10-24T03:46:11;43.40;34.80;21.00
21358;PMS7003;13506;50.852;20.632;2022-10-24T03:48:39;36.80;33.60;21.80
21358;PMS7003;13506;50.852;20.632;2022-10-24T03:51:07;46.60;37.20;24.40
21358;PMS7003;13506;50.852;20.632;2022-10-24T03:53:36;38.40;33.40;21.00
21358;PMS7003;13506;50.852;20.632;2022-10-24T03:56:05;42.40;37.00;23.40
21358;PMS7003;13506;50.852;20.632;2022-10-24T03:58:33;43.00;40.00;23.75
21358;PMS7003;13506;50.852;20.632;2022-10-24T04:01:01;37.00;33.60;20.60
21358;PMS7003;13506;50.852;20.632;2022-10-24T04:03:30;47.00;38.40;24.00
21358;PMS7003;13506;50.852;20.632;2022-10-24T04:05:57;39.20;34.60;22.80
21358;PMS7003;13506;50.852;20.632;2022-10-24T04:08:25;37.40;35.00;20.60
21358;PMS7003;13506;50.852;20.632;2022-10-24T04:10:54;36.60;31.40;19.00
21358;PMS7003;13506;50.852;20.632;2022-10-24T04:13:22;43.50;38.25;22.50
21358;PMS7003;13506;50.852;20.632;2022-10-24T04:15:51;43.50;38.00;20.75
21358;PMS7003;13506;50.852;20.632;2022-10-24T04:18:19;44.60;37.20;22.20
21358;PMS7003;13506;50.852;20.632;2022-10-24T04:20:47;50.50;41.75;25.75
21358;PMS7003;13506;50.852;20.632;2022-10-24T04:23:15;48.80;38.80;22.00
21358;PMS7003;13506;50.852;20.632;2022-10-24T04:25:43;28.60;28.60;16.00
21358;PMS7003;13506;50.852;20.632;2022-10-24T04:28:13;40.00;36.00;18.80
21358;PMS7003;13506;50.852;20.632;2022-10-24T04:30:41;38.20;28.40;17.00
21358;PMS7003;13506;50.852;20.632;2022-10-24T04:33:09;32.20;27.40;15.80
21358;PMS7003;13506;50.852;20.632;2022-10-24T04:35:37;34.60;29.60;18.40
21358;PMS7003;13506;50.852;20.632;2022-10-24T04:38:05;29.40;27.80;18.40
21358;PMS7003;13506;50.852;20.632;2022-10-24T04:40:33;28.60;25.00;16.00
21358;PMS7003;13506;50.852;20.632;2022-10-24T04:43:00;34.00;26.20;15.00
21358;PMS7003;13506;50.852;20.632;2022-10-24T04:45:30;26.80;24.40;16.00
21358;PMS7003;13506;50.852;20.632;2022-10-24T04:47:58;25.00;21.00;13.00
21358;PMS7003;13506;50.852;20.632;2022-10-24T04:50:26;26.60;26.20;15.40
21358;PMS7003;13506;50.852;20.632;2022-10-24T04:52:54;30.20;21.40;14.00
21358;PMS7003;13506;50.852;20.632;2022-10-24T04:55:22;24.80;24.00;15.20
21358;PMS7003;13506;50.852;20.632;2022-10-24T04:57:49;30.20;29.40;17.80
21358;PMS7003;13506;50.852;20.632;2022-10-24T05:00:17;30.20;27.20;15.80
21358;PMS7003;13506;50.852;20.632;2022-10-24T05:02:46;30.40;24.40;14.60
21358;PMS7003;13506;50.852;20.632;2022-10-24T05:05:15;26.20;23.80;14.40
21358;PMS7003;13506;50.852;20.632;2022-10-24T05:07:43;25.20;23.00;14.00
21358;PMS7003;13506;50.852;20.632;2022-10-24T05:10:12;27.00;27.00;15.00
21358;PMS7003;13506;50.852;20.632;2022-10-24T05:12:40;26.80;22.60;13.80
21358;PMS7003;13506;50.852;20.632;2022-10-24T05:15:08;23.00;22.00;12.20
21358;PMS7003;13506;50.852;20.632;2022-10-24T05:17:38;29.20;23.60;14.40
21358;PMS7003;13506;50.852;20.632;2022-10-24T05:20:09;20.00;17.20;9.80
21358;PMS7003;13506;50.852;20.632;2022-10-24T05:22:37;29.40;23.60;13.80
21358;PMS7003;13506;50.852;20.632;2022-10-24T05:25:05;29.00;24.20;15.00
21358;PMS7003;13506;50.852;20.632;2022-10-24T05:27:33;28.60;23.20;14.00
21358;PMS7003;13506;50.852;20.632;2022-10-24T05:30:02;27.00;25.60;16.00
21358;PMS7003;13506;50.852;20.632;2022-10-24T05:32:30;27.20;23.40;14.80
21358;PMS7003;13506;50.852;20.632;2022-10-24T05:34:58;34.40;26.20;16.80
21358;PMS7003;13506;50.852;20.632;2022-10-24T05:37:28;26.00;22.60;14.20
21358;PMS7003;13506;50.852;20.632;2022-10-24T05:39:56;33.60;26.80;16.80
21358;PMS7003;13506;50.852;20.632;2022-10-24T05:42:23;32.40;29.40;18.60
21358;PMS7003;13506;50.852;20.632;2022-10-24T05:44:52;31.60;28.80;17.40
21358;PMS7003;13506;50.852;20.632;2022-10-24T05:47:19;30.80;26.20;16.80
21358;PMS7003;13506;50.852;20.632;2022-10-24T05:49:48;26.20;20.20;12.20
21358;PMS7003;13506;50.852;20.632;2022-10-24T05:52:15;27.40;24.00;12.20
21358;PMS7003;13506;50.852;20.632;2022-10-24T05:54:45;31.40;26.20;14.60
21358;PMS7003;13506;50.852;20.632;2022-10-24T05:57:12;30.80;26.20;15.00
21358;PMS7003;13506;50.852;20.632;2022-10-24T05:59:40;29.60;26.40;14.40
21358;PMS7003;13506;50.852;20.632;2022-10-24T06:02:09;33.80;27.80;16.40
21358;PMS7003;13506;50.852;20.632;2022-10-24T06:04:44;25.80;25.60;16.60
21358;PMS7003;13506;50.852;20.632;2022-10-24T06:07:12;29.00;24.00;15.00
21358;PMS7003;13506;50.852;20.632;2022-10-24T06:09:40;32.80;27.60;16.00
21358;PMS7003;13506;50.852;20.632;2022-10-24T06:12:11;28.80;24.80;12.60
21358;PMS7003;13506;50.852;20.632;2022-10-24T06:14:39;27.80;23.60;13.20
21358;PMS7003;13506;50.852;20.632;2022-10-24T06:17:07;24.60;22.60;13.80
21358;PMS7003;13506;50.852;20.632;2022-10-24T06:19:36;29.40;25.00;13.60
21358;PMS7003;13506;50.852;20.632;2022-10-24T06:22:05;21.60;19.40;12.20
21358;PMS7003;13506;50.852;20.632;2022-10-24T06:24:34;19.20;19.20;11.20
21358;PMS7003;13506;50.852;20.632;2022-10-24T06:27:03;28.60;22.00;11.00
21358;PMS7003;13506;50.852;20.632;2022-10-24T06:29:33;20.60;19.40;10.40
21358;PMS7003;13506;50.852;20.632;2022-10-24T06:32:01;22.20;21.60;12.00
21358;PMS7003;13506;50.852;20.632;2022-10-24T06:34:30;25.40;20.40;10.40
21358;PMS7003;13506;50.852;20.632;2022-10-24T06:36:58;18.20;15.40;10.60
21358;PMS7003;13506;50.852;20.632;2022-10-24T06:39:26;20.20;17.60;11.60
21358;PMS7003;13506;50.852;20.632;2022-10-24T06:41:54;19.00;17.80;10.20
21358;PMS7003;13506;50.852;20.632;2022-10-24T06:44:24;17.20;16.00;9.80
21358;PMS7003;13506;50.852;20.632;2022-10-24T06:46:54;24.00;18.80;11.00
21358;PMS7003;13506;50.852;20.632;2022-10-24T06:49:22;20.00;17.40;10.60
21358;PMS7003;13506;50.852;20.632;2022-10-24T06:51:50;20.80;17.20;8.20
21358;PMS7003;13506;50.852;20.632;2022-10-24T06:54:18;22.00;17.00;10.80
21358;PMS7003;13506;50.852;20.632;2022-10-24T06:56:46;18.60;17.80;10.80
21358;PMS7003;13506;50.852;20.632;2022-10-24T06:59:14;20.60;17.40;9.80
21358;PMS7003;13506;50.852;20.632;2022-10-24T07:01:43;26.20;23.20;15.00
21358;PMS7003;13506;50.852;20.632;2022-10-24T07:04:13;18.40;16.00;8.80
21358;PMS7003;13506;50.852;20.632;2022-10-24T07:06:41;20.80;18.40;11.00
21358;PMS7003;13506;50.852;20.632;2022-10-24T07:09:09;21.80;20.60;11.80
21358;PMS7003;13506;50.852;20.632;2022-10-24T07:11:38;17.80;16.00;10.00
21358;PMS7003;13506;50.852;20.632;2022-10-24T07:14:05;19.20;17.40;10.20
21358;PMS7003;13506;50.852;20.632;2022-10-24T07:16:34;18.40;17.20;11.00
21358;PMS7003;13506;50.852;20.632;2022-10-24T07:19:02;19.20;16.80;9.20
21358;PMS7003;13506;50.852;20.632;2022-10-24T07:21:32;18.80;17.80;11.20
21358;PMS7003;13506;50.852;20.632;2022-10-24T07:24:02;19.40;17.60;10.20
21358;PMS7003;13506;50.852;20.632;2022-10-24T07:26:30;25.80;24.60;14.80
21358;PMS7003;13506;50.852;20.632;2022-10-24T07:28:59;27.80;24.40;15.60
21358;PMS7003;13506;50.852;20.632;2022-10-24T07:31:28;28.20;27.20;17.80
21358;PMS7003;13506;50.852;20.632;2022-10-24T07:33:59;33.60;29.20;17.80
21358;PMS7003;13506;50.852;20.632;2022-10-24T07:36:28;28.60;27.40;17.00
21358;PMS7003;13506;50.852;20.632;2022-10-24T07:38:58;35.60;31.40;20.20
21358;PMS7003;13506;50.852;20.632;2022-10-24T07:41:28;35.00;25.60;14.40
21358;PMS7003;13506;50.852;20.632;2022-10-24T07:43:57;27.40;25.40;15.40
21358;PMS7003;13506;50.852;20.632;2022-10-24T07:46:27;24.40;21.00;12.00
21358;PMS7003;13506;50.852;20.632;2022-10-24T07:48:55;27.00;24.60;14.40
21358;PMS7003;13506;50.852;20.632;2022-10-24T07:51:23;20.60;20.40;12.40
21358;PMS7003;13506;50.852;20.632;2022-10-24T07:53:53;23.00;21.60;13.00
21358;PMS7003;13506;50.852;20.632;2022-10-24T07:56:24;23.60;21.40;13.00
21358;PMS7003;13506;50.852;20.632;2022-10-24T07:58:52;22.40;19.40;13.00
21358;PMS7003;13506;50.852;20.632;2022-10-24T08:01:21;19.60;19.00;11.00
21358;PMS7003;13506;50.852;20.632;2022-10-24T08:03:51;22.40;20.00;11.80
21358;PMS7003;13506;50.852;20.632;2022-10-24T08:06:20;22.20;20.80;12.20
21358;PMS7003;13506;50.852;20.632;2022-10-24T08:08:50;22.60;20.40;11.60
21358;PMS7003;13506;50.852;20.632;2022-10-24T08:11:18;19.60;16.80;10.80
21358;PMS7003;13506;50.852;20.632;2022-10-24T08:13:50;22.60;18.40;11.00
21358;PMS7003;13506;50.852;20.632;2022-10-24T08:16:20;22.40;16.60;10.00
21358;PMS7003;13506;50.852;20.632;2022-10-24T08:18:49;21.00;19.40;10.80
21358;PMS7003;13506;50.852;20.632;2022-10-24T08:21:19;21.20;16.20;10.40
21358;PMS7003;13506;50.852;20.632;2022-10-24T08:23:49;16.60;16.60;11.80
21358;PMS7003;13506;50.852;20.632;2022-10-24T08:26:19;19.00;16.00;9.40
21358;PMS7003;13506;50.852;20.632;2022-10-24T08:28:51;20.20;17.00;10.00
21358;PMS7003;13506;50.852;20.632;2022-10-24T08:31:21;21.80;19.00;11.00
21358;PMS7003;13506;50.852;20.632;2022-10-24T08:33:51;20.20;20.20;11.60
21358;PMS7003;13506;50.852;20.632;2022-10-24T08:36:23;23.00;22.00;14.60
21358;PMS7003;13506;50.852;20.632;2022-10-24T08:38:53;24.60;19.20;12.20
21358;PMS7003;13506;50.852;20.632;2022-10-24T08:41:24;22.80;20.00;12.20
21358;PMS7003;13506;50.852;20.632;2022-10-24T08:44:00;18.40;16.20;8.80
21358;PMS7003;13506;50.852;20.632;2022-10-24T08:46:44;21.20;20.40;12.80
21358;PMS7003;13506;50.852;20.632;2022-10-24T08:49:28;20.80;18.80;10.40
21358;PMS7003;13506;50.852;20.632;2022-10-24T08:52:03;22.60;20.60;13.40
21358;PMS7003;13506;50.852;20.632;2022-10-24T08:54:40;21.00;19.60;11.40
21358;PMS7003;13506;50.852;20.632;2022-10-24T08:57:14;65.00;51.00;32.00
21358;PMS7003;13506;50.852;20.632;2022-10-24T08:59:49;34.00;29.40;17.00
21358;PMS7003;13506;50.852;20.632;2022-10-24T09:02:21;23.80;23.20;14.20
21358;PMS7003;13506;50.852;20.632;2022-10-24T09:04:54;24.00;22.00;13.00
21358;PMS7003;13506;50.852;20.632;2022-10-24T09:07:24;26.80;20.40;11.00
21358;PMS7003;13506;50.852;20.632;2022-10-24T09:09:57;21.80;19.60;12.80
21358;PMS7003;13506;50.852;20.632;2022-10-24T09:12:32;22.80;20.40;13.40
21358;PMS7003;13506;50.852;20.632;2022-10-24T09:15:07;27.80;22.60;15.00
21358;PMS7003;13506;50.852;20.632;2022-10-24T09:17:50;26.60;21.40;13.20
21358;PMS7003;13506;50.852;20.632;2022-10-24T09:20:20;21.40;19.00;14.00
21358;PMS7003;13506;50.852;20.632;2022-10-24T09:22:51;22.00;18.80;10.80
21358;PMS7003;13506;50.852;20.632;2022-10-24T09:25:21;18.20;16.00;9.00
21358;PMS7003;13506;50.852;20.632;2022-10-24T09:27:54;21.40;21.40;10.80
21358;PMS7003;13506;50.852;20.632;2022-10-24T09:30:25;26.20;21.20;11.80
21358;PMS7003;13506;50.852;20.632;2022-10-24T09:32:54;26.80;22.20;13.80
21358;PMS7003;13506;50.852;20.632;2022-10-24T09:35:24;21.60;17.40;11.00
21358;PMS7003;13506;50.852;20.632;2022-10-24T09:37:55;22.80;21.20;13.00
21358;PMS7003;13506;50.852;20.632;2022-10-24T09:40:24;22.80;19.80;12.00
21358;PMS7003;13506;50.852;20.632;2022-10-24T09:42:58;17.60;16.80;10.20
21358;PMS7003;13506;50.852;20.632;2022-10-24T09:45:39;21.00;17.60;11.00
21358;PMS7003;13506;50.852;20.632;2022-10-24T09:48:14;21.80;20.20;12.00
21358;PMS7003;13506;50.852;20.632;2022-10-24T09:50:48;18.00;17.60;11.00
21358;PMS7003;13506;50.852;20.632;2022-10-24T09:53:20;18.80;18.40;11.80
21358;PMS7003;13506;50.852;20.632;2022-10-24T09:55:54;23.40;22.00;12.80
21358;PMS7003;13506;50.852;20.632;2022-10-24T09:58:24;23.20;18.60;10.80
21358;PMS7003;13506;50.852;20.632;2022-10-24T10:00:59;14.80;13.40;8.20
21358;PMS7003;13506;50.852;20.632;2022-10-24T10:03:30;20.80;18.80;11.00
21358;PMS7003;13506;50.852;20.632;2022-10-24T10:06:00;18.20;17.60;10.80
21358;PMS7003;13506;50.852;20.632;2022-10-24T10:08:31;20.80;16.60;9.00
21358;PMS7003;13506;50.852;20.632;2022-10-24T10:11:02;20.00;15.40;9.00
21358;PMS7003;13506;50.852;20.632;2022-10-24T10:13:34;20.00;17.80;11.00
21358;PMS7003;13506;50.852;20.632;2022-10-24T10:16:21;17.60;16.40;10.40
21358;PMS7003;13506;50.852;20.632;2022-10-24T10:19:00;19.20;17.60;9.80
21358;PMS7003;13506;50.852;20.632;2022-10-24T10:21:51;27.00;22.20;12.00
21358;PMS7003;13506;50.852;20.632;2022-10-24T10:24:25;17.80;16.80;11.80
21358;PMS7003;13506;50.852;20.632;2022-10-24T10:27:21;16.60;15.80;9.00
21358;PMS7003;13506;50.852;20.632;2022-10-24T10:30:06;20.40;19.40;9.60
21358;PMS7003;13506;50.852;20.632;2022-10-24T10:32:55;18.20;15.20;9.00
21358;PMS7003;13506;50.852;20.632;2022-10-24T10:35:35;19.00;19.00;11.00
21358;PMS7003;13506;50.852;20.632;2022-10-24T10:38:15;19.20;17.20;9.00
21358;PMS7003;13506;50.852;20.632;2022-10-24T10:40:56;19.60;15.20;9.00
21358;PMS7003;13506;50.852;20.632;2022-10-24T10:43:34;16.20;14.60;9.80
21358;PMS7003;13506;50.852;20.632;2022-10-24T10:46:12;18.00;15.80;9.40
21358;PMS7003;13506;50.852;20.632;2022-10-24T10:48:51;19.00;16.20;10.00
21358;PMS7003;13506;50.852;20.632;2022-10-24T10:51:34;18.60;17.00;9.20
21358;PMS7003;13506;50.852;20.632;2022-10-24T10:54:11;16.40;16.40;10.40
21358;PMS7003;13506;50.852;20.632;2022-10-24T10:56:53;16.60;15.20;9.00
21358;PMS7003;13506;50.852;20.632;2022-10-24T10:59:35;15.80;14.00;8.40
21358;PMS7003;13506;50.852;20.632;2022-10-24T11:02:32;17.60;16.40;10.00
21358;PMS7003;13506;50.852;20.632;2022-10-24T11:05:26;14.80;14.80;10.00
21358;PMS7003;13506;50.852;20.632;2022-10-24T11:08:24;20.40;18.60;11.00
21358;PMS7003;13506;50.852;20.632;2022-10-24T11:11:13;21.60;19.00;11.00
21358;PMS7003;13506;50.852;20.632;2022-10-24T11:13:48;17.60;17.60;10.80
21358;PMS7003;13506;50.852;20.632;2022-10-24T11:16:24;16.40;16.40;10.00
21358;PMS7003;13506;50.852;20.632;2022-10-24T11:18:55;19.00;18.00;11.00
21358;PMS7003;13506;50.852;20.632;2022-10-24T11:21:30;21.00;16.20;10.60
21358;PMS7003;13506;50.852;20.632;2022-10-24T11:24:01;19.60;17.80;10.00
21358;PMS7003;13506;50.852;20.632;2022-10-24T11:26:37;21.60;19.20;11.20
21358;PMS7003;13506;50.852;20.632;2022-10-24T11:29:10;22.40;21.00;12.80
21358;PMS7003;13506;50.852;20.632;2022-10-24T11:31:47;29.40;21.40;12.40
21358;PMS7003;13506;50.852;20.632;2022-10-24T11:34:20;16.40;16.40;11.00
21358;PMS7003;13506;50.852;20.632;2022-10-24T11:36:58;18.80;16.40;10.00
21358;PMS7003;13506;50.852;20.632;2022-10-24T11:39:34;22.00;19.80;11.00
21358;PMS7003;13506;50.852;20.632;2022-10-24T11:42:11;17.40;16.80;10.60
21358;PMS7003;13506;50.852;20.632;2022-10-24T11:44:48;24.60;19.80;11.80
21358;PMS7003;13506;50.852;20.632;2022-10-24T11:47:31;21.00;16.80;9.80
21358;PMS7003;13506;50.852;20.632;2022-10-24T11:50:24;20.80;18.00;8.80
21358;PMS7003;13506;50.852;20.632;2022-10-24T11:53:03;21.00;16.60;10.00
21358;PMS7003;13506;50.852;20.632;2022-10-24T11:55:43;18.00;16.40;10.80
21358;PMS7003;13506;50.852;20.632;2022-10-24T11:58:20;19.60;16.40;8.60
21358;PMS7003;13506;50.852;20.632;2022-10-24T12:01:05;16.80;16.20;8.00
21358;PMS7003;13506;50.852;20.632;2022-10-24T12:03:55;19.80;17.00;10.20
21358;PMS7003;13506;50.852;20.632;2022-10-24T12:06:43;21.00;16.80;8.40
21358;PMS7003;13506;50.852;20.632;2022-10-24T12:09:54;15.80;15.80;8.60
21358;PMS7003;13506;50.852;20.632;2022-10-24T12:13:11;28.20;20.80;13.80
21358;PMS7003;13506;50.852;20.632;2022-10-24T12:16:17;21.60;18.00;10.40
21358;PMS7003;13506;50.852;20.632;2022-10-24T12:19:00;15.40;12.80;7.40
21358;PMS7003;13506;50.852;20.632;2022-10-24T12:21:33;18.80;15.80;9.00
21358;PMS7003;13506;50.852;20.632;2022-10-24T12:24:05;17.80;17.60;8.20
21358;PMS7003;13506;50.852;20.632;2022-10-24T12:26:54;17.00;15.00;9.60
21358;PMS7003;13506;50.852;20.632;2022-10-24T12:29:24;16.20;13.60;7.80
21358;PMS7003;13506;50.852;20.632;2022-10-24T12:31:53;17.60;16.80;9.00
21358;PMS7003;13506;50.852;20.632;2022-10-24T12:34:36;17.60;14.80;8.00
21358;PMS7003;13506;50.852;20.632;2022-10-24T12:37:10;19.20;16.40;7.60
21358;PMS7003;13506;50.852;20.632;2022-10-24T12:39:57;17.60;15.00;8.00
21358;PMS7003;13506;50.852;20.632;2022-10-24T12:45:53;16.80;14.40;9.00
21358;PMS7003;13506;50.852;20.632;2022-10-24T12:48:29;15.60;14.00;8.60
21358;PMS7003;13506;50.852;20.632;2022-10-24T12:54:00;16.80;16.00;9.40
21358;PMS7003;13506;50.852;20.632;2022-10-24T12:59:53;20.20;19.00;10.80
21358;PMS7003;13506;50.852;20.632;2022-10-24T13:02:25;18.40;17.00;9.20
21358;PMS7003;13506;50.852;20.632;2022-10-24T13:05:15;20.40;19.00;10.80
21358;PMS7003;13506;50.852;20.632;2022-10-24T13:08:12;22.80;17.20;10.20
21358;PMS7003;13506;50.852;20.632;2022-10-24T13:11:06;16.80;15.40;9.00
21358;PMS7003;13506;50.852;20.632;2022-10-24T13:13:55;18.60;18.60;10.60
21358;PMS7003;13506;50.852;20.632;2022-10-24T13:16:53;19.00;15.20;9.00
21358;PMS7003;13506;50.852;20.632;2022-10-24T13:19:29;20.80;16.20;10.00
21358;PMS7003;13506;50.852;20.632;2022-10-24T13:21:57;19.40;16.00;9.00
21358;PMS7003;13506;50.852;20.632;2022-10-24T13:24:28;17.80;16.40;10.00
21358;PMS7003;13506;50.852;20.632;2022-10-24T13:30:00;17.00;17.00;9.00
21358;PMS7003;13506;50.852;20.632;2022-10-24T13:32:51;17.80;16.00;9.20
21358;PMS7003;13506;50.852;20.632;2022-10-24T13:36:10;16.80;15.40;8.60
21358;PMS7003;13506;50.852;20.632;2022-10-24T13:38:44;14.20;13.60;8.00
21358;PMS7003;13506;50.852;20.632;2022-10-24T13:41:18;20.60;17.20;10.00
21358;PMS7003;13506;50.852;20.632;2022-10-24T13:43:55;11.20;11.20;8.00
21358;PMS7003;13506;50.852;20.632;2022-10-24T13:46:29;16.00;13.20;8.60
21358;PMS7003;13506;50.852;20.632;2022-10-24T13:49:05;15.60;14.00;8.60
21358;PMS7003;13506;50.852;20.632;2022-10-24T13:51:35;15.60;14.40;9.40
21358;PMS7003;13506;50.852;20.632;2022-10-24T13:54:13;17.20;13.60;8.00
21358;PMS7003;13506;50.852;20.632;2022-10-24T13:56:47;17.00;15.60;9.80
21358;PMS7003;13506;50.852;20.632;2022-10-24T13:59:28;18.20;14.60;8.60
21358;PMS7003;13506;50.852;20.632;2022-10-24T14:01:57;13.20;13.20;7.40
21358;PMS7003;13506;50.852;20.632;2022-10-24T14:04:31;15.20;15.20;8.60
21358;PMS7003;13506;50.852;20.632;2022-10-24T14:07:01;16.80;13.80;9.00
21358;PMS7003;13506;50.852;20.632;2022-10-24T14:09:37;15.80;14.80;8.20
21358;PMS7003;13506;50.852;20.632;2022-10-24T14:12:07;20.20;16.00;10.00
21358;PMS7003;13506;50.852;20.632;2022-10-24T14:14:46;15.00;13.20;7.00
21358;PMS7003;13506;50.852;20.632;2022-10-24T14:17:18;15.60;14.00;7.40
21358;PMS7003;13506;50.852;20.632;2022-10-24T14:19:53;13.20;12.20;8.20
21358;PMS7003;13506;50.852;20.632;2022-10-24T14:22:24;16.00;15.60;9.00